sensor_id;sensor_type;location;lat;lon;timestamp;temperature;humidity
39503;DHT22;26970;49.900;10.774;2023-08-30T00:05:32;13.00;99.90
39503;DHT22;26970;49.900;10.774;2023-08-30T00:07:58;13.00;99.90
39503;DHT22;26970;49.900;10.774;2023-08-30T00:10:23;15.20;99.90
39503;DHT22;26970;49.900;10.774;2023-08-30T00:12:49;13.00;99.90
39503;DHT22;26970;49.900;10.774;2023-08-30T00:15:15;13.10;99.90
39503;DHT22;26970;49.900;10.774;2023-08-30T00:17:41;13.10;99.90
39503;DHT22;26970;49.900;10.774;2023-08-30T00:20:07;15.20;99.90
39503;DHT22;26970;49.900;10.774;2023-08-30T00:25:01;12.90;99.90
39503;DHT22;26970;49.900;10.774;2023-08-30T00:27:26;13.00;99.90
39503;DHT22;26970;49.900;10.774;2023-08-30T00:29:52;13.00;99.90
39503;DHT22;26970;49.900;10.774;2023-08-30T00:32:17;12.90;99.90
39503;DHT22;26970;49.900;10.774;2023-08-30T00:34:43;12.90;99.90
39503;DHT22;26970;49.900;10.774;2023-08-30T00:37:08;12.80;99.90
39503;DHT22;26970;49.900;10.774;2023-08-30T00:42:00;12.70;99.90
39503;DHT22;26970;49.900;10.774;2023-08-30T00:44:30;12.60;99.90
39503;DHT22;26970;49.900;10.774;2023-08-30T00:51:47;12.30;99.90
39503;DHT22;26970;49.900;10.774;2023-08-30T00:54:13;12.30;99.90
39503;DHT22;26970;49.900;10.774;2023-08-30T00:56:39;12.30;99.90
39503;DHT22;26970;49.900;10.774;2023-08-30T00:59:04;12.30;99.90
39503;DHT22;26970;49.900;10.774;2023-08-30T01:03:56;12.20;99.90
39503;DHT22;26970;49.900;10.774;2023-08-30T01:06:22;12.20;99.90
39503;DHT22;26970;49.900;10.774;2023-08-30T01:08:47;12.10;99.90
39503;DHT22;26970;49.900;10.774;2023-08-30T01:11:24;12.20;99.90
39503;DHT22;26970;49.900;10.774;2023-08-30T01:14:14;12.20;99.90
39503;DHT22;26970;49.900;10.774;2023-08-30T01:16:41;12.20;99.90
39503;DHT22;26970;49.900;10.774;2023-08-30T01:22:05;12.20;99.90
39503;DHT22;26970;49.900;10.774;2023-08-30T01:27:47;12.20;99.90
39503;DHT22;26970;49.900;10.774;2023-08-30T01:30:14;12.20;99.90
39503;DHT22;26970;49.900;10.774;2023-08-30T01:32:41;12.20;99.90
39503;DHT22;26970;49.900;10.774;2023-08-30T01:35:08;14.00;99.90
39503;DHT22;26970;49.900;10.774;2023-08-30T01:37:34;12.30;99.90
39503;DHT22;26970;49.900;10.774;2023-08-30T01:40:02;12.20;99.90
39503;DHT22;26970;49.900;10.774;2023-08-30T01:42:30;12.40;99.90
39503;DHT22;26970;49.900;10.774;2023-08-30T01:44:58;12.30;99.90
39503;DHT22;26970;49.900;10.774;2023-08-30T01:47:27;12.20;99.90
39503;DHT22;26970;49.900;10.774;2023-08-30T01:49:53;12.20;99.90
39503;DHT22;26970;49.900;10.774;2023-08-30T01:52:20;12.20;99.90
39503;DHT22;26970;49.900;10.774;2023-08-30T01:54:47;15.00;99.90
39503;DHT22;26970;49.900;10.774;2023-08-30T01:57:13;12.20;99.90
39503;DHT22;26970;49.900;10.774;2023-08-30T01:59:39;12.20;99.90
39503;DHT22;26970;49.900;10.774;2023-08-30T02:02:04;12.20;99.90
39503;DHT22;26970;49.900;10.774;2023-08-30T02:04:30;12.20;99.90
39503;DHT22;26970;49.900;10.774;2023-08-30T02:07:02;12.20;99.90
39503;DHT22;26970;49.900;10.774;2023-08-30T02:12:00;12.10;99.90
39503;DHT22;26970;49.900;10.774;2023-08-30T02:16:55;12.10;99.90
39503;DHT22;26970;49.900;10.774;2023-08-30T02:21:47;12.10;99.90
39503;DHT22;26970;49.900;10.774;2023-08-30T02:24:13;12.00;99.90
39503;DHT22;26970;49.900;10.774;2023-08-30T02:26:39;11.90;99.90
39503;DHT22;26970;49.900;10.774;2023-08-30T02:29:05;13.70;99.90
39503;DHT22;26970;49.900;10.774;2023-08-30T02:31:30;11.80;99.90
39503;DHT22;26970;49.900;10.774;2023-08-30T02:33:56;14.40;99.90
39503;DHT22;26970;49.900;10.774;2023-08-30T02:36:21;12.10;99.90
39503;DHT22;26970;49.900;10.774;2023-08-30T02:38:47;11.80;99.90
39503;DHT22;26970;49.900;10.774;2023-08-30T02:41:12;12.10;99.90
39503;DHT22;26970;49.900;10.774;2023-08-30T02:43:38;12.90;99.90
39503;DHT22;26970;49.900;10.774;2023-08-30T02:46:04;11.60;99.90
39503;DHT22;26970;49.900;10.774;2023-08-30T02:48:31;11.50;99.90
39503;DHT22;26970;49.900;10.774;2023-08-30T02:50:57;11.50;99.90
39503;DHT22;26970;49.900;10.774;2023-08-30T02:53:23;11.50;99.90
39503;DHT22;26970;49.900;10.774;2023-08-30T02:58:14;11.40;99.90
39503;DHT22;26970;49.900;10.774;2023-08-30T03:00:40;11.40;99.90
39503;DHT22;26970;49.900;10.774;2023-08-30T03:03:05;11.40;99.90
39503;DHT22;26970;49.900;10.774;2023-08-30T03:05:31;11.30;99.90
39503;DHT22;26970;49.900;10.774;2023-08-30T03:07:57;11.50;99.90
39503;DHT22;26970;49.900;10.774;2023-08-30T03:10:22;11.60;99.90
39503;DHT22;26970;49.900;10.774;2023-08-30T03:12:48;11.20;99.90
39503;DHT22;26970;49.900;10.774;2023-08-30T03:15:13;11.10;99.90
39503;DHT22;26970;49.900;10.774;2023-08-30T03:20:05;11.10;99.90
39503;DHT22;26970;49.900;10.774;2023-08-30T03:22:31;11.20;99.90
39503;DHT22;26970;49.900;10.774;2023-08-30T03:24:57;11.50;99.90
39503;DHT22;26970;49.900;10.774;2023-08-30T03:27:23;11.20;99.90
39503;DHT22;26970;49.900;10.774;2023-08-30T03:32:17;11.20;99.90
39503;DHT22;26970;49.900;10.774;2023-08-30T03:34:47;11.40;99.90
39503;DHT22;26970;49.900;10.774;2023-08-30T03:37:16;11.20;99.90
39503;DHT22;26970;49.900;10.774;2023-08-30T03:39:41;11.30;99.90
39503;DHT22;26970;49.900;10.774;2023-08-30T03:44:33;11.20;99.90
39503;DHT22;26970;49.900;10.774;2023-08-30T03:46:59;11.20;99.90
39503;DHT22;26970;49.900;10.774;2023-08-30T03:49:25;12.10;99.90
39503;DHT22;26970;49.900;10.774;2023-08-30T03:51:50;11.10;99.90
39503;DHT22;26970;49.900;10.774;2023-08-30T03:56:43;11.00;99.90
39503;DHT22;26970;49.900;10.774;2023-08-30T03:59:09;10.90;99.90
39503;DHT22;26970;49.900;10.774;2023-08-30T04:01:35;11.20;99.90
39503;DHT22;26970;49.900;10.774;2023-08-30T04:04:00;10.90;99.90
39503;DHT22;26970;49.900;10.774;2023-08-30T04:06:26;10.90;99.90
39503;DHT22;26970;49.900;10.774;2023-08-30T04:08:51;10.90;99.90
39503;DHT22;26970;49.900;10.774;2023-08-30T04:11:17;10.80;99.90
39503;DHT22;26970;49.900;10.774;2023-08-30T04:13:42;10.70;99.90
39503;DHT22;26970;49.900;10.774;2023-08-30T04:16:08;10.70;99.90
39503;DHT22;26970;49.900;10.774;2023-08-30T04:18:34;10.80;99.90
39503;DHT22;26970;49.900;10.774;2023-08-30T04:20:59;10.90;99.90
39503;DHT22;26970;49.900;10.774;2023-08-30T04:25:53;11.00;99.90
39503;DHT22;26970;49.900;10.774;2023-08-30T04:28:19;11.00;99.90
39503;DHT22;26970;49.900;10.774;2023-08-30T04:33:10;11.10;99.90
39503;DHT22;26970;49.900;10.774;2023-08-30T04:38:02;11.00;99.90
39503;DHT22;26970;49.900;10.774;2023-08-30T04:40:28;11.00;99.90
39503;DHT22;26970;49.900;10.774;2023-08-30T04:42:55;11.00;99.90
39503;DHT22;26970;49.900;10.774;2023-08-30T04:45:21;11.10;99.90
39503;DHT22;26970;49.900;10.774;2023-08-30T04:47:47;10.90;99.90
39503;DHT22;26970;49.900;10.774;2023-08-30T04:50:13;10.80;99.90
39503;DHT22;26970;49.900;10.774;2023-08-30T04:52:39;10.90;99.90
39503;DHT22;26970;49.900;10.774;2023-08-30T04:55:05;10.90;99.90
39503;DHT22;26970;49.900;10.774;2023-08-30T04:57:30;10.90;99.90
39503;DHT22;26970;49.900;10.774;2023-08-30T04:59:57;10.90;99.90
39503;DHT22;26970;49.900;10.774;2023-08-30T05:02:22;10.90;99.90
39503;DHT22;26970;49.900;10.774;2023-08-30T05:07:14;10.90;99.90
39503;DHT22;26970;49.900;10.774;2023-08-30T05:09:39;11.00;99.90
39503;DHT22;26970;49.900;10.774;2023-08-30T05:12:06;11.00;99.90
39503;DHT22;26970;49.900;10.774;2023-08-30T05:14:32;11.10;99.90
39503;DHT22;26970;49.900;10.774;2023-08-30T05:16:57;11.20;99.90
39503;DHT22;26970;49.900;10.774;2023-08-30T05:19:23;11.30;99.90
39503;DHT22;26970;49.900;10.774;2023-08-30T05:21:49;11.30;99.90
39503;DHT22;26970;49.900;10.774;2023-08-30T05:24:20;11.30;99.90
39503;DHT22;26970;49.900;10.774;2023-08-30T05:26:46;11.30;99.90
39503;DHT22;26970;49.900;10.774;2023-08-30T05:29:15;11.30;99.90
39503;DHT22;26970;49.900;10.774;2023-08-30T05:31:41;11.30;99.90
39503;DHT22;26970;49.900;10.774;2023-08-30T05:34:07;11.30;99.90
39503;DHT22;26970;49.900;10.774;2023-08-30T05:36:33;11.70;99.90
39503;DHT22;26970;49.900;10.774;2023-08-30T05:38:58;11.30;99.90
39503;DHT22;26970;49.900;10.774;2023-08-30T05:41:24;11.30;99.90
39503;DHT22;26970;49.900;10.774;2023-08-30T05:43:50;11.30;99.90
39503;DHT22;26970;49.900;10.774;2023-08-30T05:46:16;11.30;99.90
39503;DHT22;26970;49.900;10.774;2023-08-30T05:48:42;11.80;99.90
39503;DHT22;26970;49.900;10.774;2023-08-30T05:51:07;11.40;99.90
39503;DHT22;26970;49.900;10.774;2023-08-30T05:53:33;13.30;99.90
39503;DHT22;26970;49.900;10.774;2023-08-30T05:55:58;14.30;99.90
39503;DHT22;26970;49.900;10.774;2023-08-30T05:58:24;11.50;99.90
39503;DHT22;26970;49.900;10.774;2023-08-30T06:00:49;11.60;99.90
39503;DHT22;26970;49.900;10.774;2023-08-30T06:03:15;12.60;99.90
39503;DHT22;26970;49.900;10.774;2023-08-30T06:05:41;13.80;99.90
39503;DHT22;26970;49.900;10.774;2023-08-30T06:08:08;11.70;99.90
39503;DHT22;26970;49.900;10.774;2023-08-30T06:10:34;11.80;99.90
39503;DHT22;26970;49.900;10.774;2023-08-30T06:13:00;11.80;99.90
39503;DHT22;26970;49.900;10.774;2023-08-30T06:15:25;11.90;99.90
39503;DHT22;26970;49.900;10.774;2023-08-30T06:17:51;12.00;99.90
39503;DHT22;26970;49.900;10.774;2023-08-30T06:20:17;12.10;99.90
39503;DHT22;26970;49.900;10.774;2023-08-30T06:22:43;12.20;99.90
39503;DHT22;26970;49.900;10.774;2023-08-30T06:25:09;12.10;99.90
39503;DHT22;26970;49.900;10.774;2023-08-30T06:27:41;13.10;99.90
39503;DHT22;26970;49.900;10.774;2023-08-30T06:30:08;12.20;99.90
39503;DHT22;26970;49.900;10.774;2023-08-30T06:32:33;12.20;99.90
39503;DHT22;26970;49.900;10.774;2023-08-30T06:34:59;12.30;99.90
39503;DHT22;26970;49.900;10.774;2023-08-30T06:37:24;12.30;99.90
39503;DHT22;26970;49.900;10.774;2023-08-30T06:39:50;13.90;99.90
39503;DHT22;26970;49.900;10.774;2023-08-30T06:42:16;12.50;99.90
39503;DHT22;26970;49.900;10.774;2023-08-30T06:44:41;12.50;99.90
39503;DHT22;26970;49.900;10.774;2023-08-30T06:47:07;12.50;99.90
39503;DHT22;26970;49.900;10.774;2023-08-30T06:49:33;12.50;99.90
39503;DHT22;26970;49.900;10.774;2023-08-30T06:51:59;12.30;99.90
39503;DHT22;26970;49.900;10.774;2023-08-30T06:54:28;12.30;99.90
39503;DHT22;26970;49.900;10.774;2023-08-30T06:56:59;12.30;99.90
39503;DHT22;26970;49.900;10.774;2023-08-30T06:59:26;12.40;99.90
39503;DHT22;26970;49.900;10.774;2023-08-30T07:01:51;13.20;99.90
39503;DHT22;26970;49.900;10.774;2023-08-30T07:04:17;12.70;99.90
39503;DHT22;26970;49.900;10.774;2023-08-30T07:06:42;14.00;99.90
39503;DHT22;26970;49.900;10.774;2023-08-30T07:09:08;13.00;99.90
39503;DHT22;26970;49.900;10.774;2023-08-30T07:11:34;13.10;99.90
39503;DHT22;26970;49.900;10.774;2023-08-30T07:14:00;13.10;99.90
39503;DHT22;26970;49.900;10.774;2023-08-30T07:16:25;13.10;99.90
39503;DHT22;26970;49.900;10.774;2023-08-30T07:18:51;13.30;99.90
39503;DHT22;26970;49.900;10.774;2023-08-30T07:21:16;13.30;99.90
39503;DHT22;26970;49.900;10.774;2023-08-30T07:23:43;13.20;99.90
39503;DHT22;26970;49.900;10.774;2023-08-30T07:26:09;13.30;99.90
39503;DHT22;26970;49.900;10.774;2023-08-30T07:28:35;13.20;99.90
39503;DHT22;26970;49.900;10.774;2023-08-30T07:31:04;13.20;99.90
39503;DHT22;26970;49.900;10.774;2023-08-30T07:33:30;13.20;99.90
39503;DHT22;26970;49.900;10.774;2023-08-30T07:35:56;13.50;99.90
39503;DHT22;26970;49.900;10.774;2023-08-30T07:38:21;13.20;99.90
39503;DHT22;26970;49.900;10.774;2023-08-30T07:40:47;13.20;99.90
39503;DHT22;26970;49.900;10.774;2023-08-30T07:43:13;13.30;99.90
39503;DHT22;26970;49.900;10.774;2023-08-30T07:45:38;13.60;99.90
39503;DHT22;26970;49.900;10.774;2023-08-30T07:48:04;13.40;99.90
39503;DHT22;26970;49.900;10.774;2023-08-30T07:50:30;13.30;99.90
39503;DHT22;26970;49.900;10.774;2023-08-30T07:52:55;13.50;99.90
39503;DHT22;26970;49.900;10.774;2023-08-30T07:55:21;14.10;99.90
39503;DHT22;26970;49.900;10.774;2023-08-30T07:57:46;13.60;99.90
39503;DHT22;26970;49.900;10.774;2023-08-30T08:00:12;13.60;99.90
39503;DHT22;26970;49.900;10.774;2023-08-30T08:02:39;13.60;99.90
39503;DHT22;26970;49.900;10.774;2023-08-30T08:05:04;14.10;99.90
39503;DHT22;26970;49.900;10.774;2023-08-30T08:07:30;13.90;99.90
39503;DHT22;26970;49.900;10.774;2023-08-30T08:09:57;14.30;99.90
39503;DHT22;26970;49.900;10.774;2023-08-30T08:12:22;14.50;99.90
39503;DHT22;26970;49.900;10.774;2023-08-30T08:14:48;14.70;99.90
39503;DHT22;26970;49.900;10.774;2023-08-30T08:17:14;14.70;99.90
39503;DHT22;26970;49.900;10.774;2023-08-30T08:19:39;14.70;99.90
39503;DHT22;26970;49.900;10.774;2023-08-30T08:22:05;14.60;99.90
39503;DHT22;26970;49.900;10.774;2023-08-30T08:24:31;14.50;99.90
39503;DHT22;26970;49.900;10.774;2023-08-30T08:26:57;14.50;99.90
39503;DHT22;26970;49.900;10.774;2023-08-30T08:29:22;14.30;99.90
39503;DHT22;26970;49.900;10.774;2023-08-30T08:31:48;14.20;99.90
39503;DHT22;26970;49.900;10.774;2023-08-30T08:34:14;14.30;99.90
39503;DHT22;26970;49.900;10.774;2023-08-30T08:36:41;14.90;99.90
39503;DHT22;26970;49.900;10.774;2023-08-30T08:39:07;14.60;99.90
39503;DHT22;26970;49.900;10.774;2023-08-30T08:41:40;14.60;99.90
39503;DHT22;26970;49.900;10.774;2023-08-30T08:44:10;14.80;99.90
39503;DHT22;26970;49.900;10.774;2023-08-30T08:46:37;15.20;99.90
39503;DHT22;26970;49.900;10.774;2023-08-30T08:51:35;15.90;99.90
39503;DHT22;26970;49.900;10.774;2023-08-30T08:54:03;16.20;99.90
39503;DHT22;26970;49.900;10.774;2023-08-30T08:56:30;16.40;99.90
39503;DHT22;26970;49.900;10.774;2023-08-30T08:58:56;16.60;99.90
39503;DHT22;26970;49.900;10.774;2023-08-30T09:01:23;16.70;99.90
39503;DHT22;26970;49.900;10.774;2023-08-30T09:03:50;17.00;99.90
39503;DHT22;26970;49.900;10.774;2023-08-30T09:06:16;17.10;99.90
39503;DHT22;26970;49.900;10.774;2023-08-30T09:08:42;17.30;99.90
39503;DHT22;26970;49.900;10.774;2023-08-30T09:11:07;17.40;99.90
39503;DHT22;26970;49.900;10.774;2023-08-30T09:13:33;17.50;99.90
39503;DHT22;26970;49.900;10.774;2023-08-30T09:15:59;17.50;99.90
39503;DHT22;26970;49.900;10.774;2023-08-30T09:18:25;17.60;99.90
39503;DHT22;26970;49.900;10.774;2023-08-30T09:21:13;17.80;99.90
39503;DHT22;26970;49.900;10.774;2023-08-30T09:23:38;17.80;99.90
39503;DHT22;26970;49.900;10.774;2023-08-30T09:26:05;17.80;99.90
39503;DHT22;26970;49.900;10.774;2023-08-30T09:28:31;17.80;99.90
39503;DHT22;26970;49.900;10.774;2023-08-30T09:30:59;17.90;99.90
39503;DHT22;26970;49.900;10.774;2023-08-30T09:33:33;18.20;99.90
39503;DHT22;26970;49.900;10.774;2023-08-30T09:35:59;18.30;99.90
39503;DHT22;26970;49.900;10.774;2023-08-30T09:38:25;18.20;99.90
39503;DHT22;26970;49.900;10.774;2023-08-30T09:40:51;18.40;99.90
39503;DHT22;26970;49.900;10.774;2023-08-30T09:43:20;18.20;99.90
39503;DHT22;26970;49.900;10.774;2023-08-30T09:45:50;18.30;99.90
39503;DHT22;26970;49.900;10.774;2023-08-30T09:48:20;18.50;99.90
39503;DHT22;26970;49.900;10.774;2023-08-30T09:50:47;18.80;99.90
39503;DHT22;26970;49.900;10.774;2023-08-30T09:53:17;19.40;99.90
39503;DHT22;26970;49.900;10.774;2023-08-30T09:55:43;19.70;99.90
39503;DHT22;26970;49.900;10.774;2023-08-30T09:58:09;19.80;99.90
39503;DHT22;26970;49.900;10.774;2023-08-30T10:00:35;19.60;99.90
39503;DHT22;26970;49.900;10.774;2023-08-30T10:03:02;19.80;99.90
39503;DHT22;26970;49.900;10.774;2023-08-30T10:05:29;19.90;99.90
39503;DHT22;26970;49.900;10.774;2023-08-30T10:07:56;19.90;99.90
39503;DHT22;26970;49.900;10.774;2023-08-30T10:10:26;20.10;99.90
39503;DHT22;26970;49.900;10.774;2023-08-30T10:12:51;20.10;99.90
39503;DHT22;26970;49.900;10.774;2023-08-30T10:15:20;19.90;99.90
39503;DHT22;26970;49.900;10.774;2023-08-30T10:17:47;19.70;99.90
39503;DHT22;26970;49.900;10.774;2023-08-30T10:20:14;19.70;99.90
39503;DHT22;26970;49.900;10.774;2023-08-30T10:22:41;19.40;99.90
39503;DHT22;26970;49.900;10.774;2023-08-30T10:25:15;19.20;99.90
39503;DHT22;26970;49.900;10.774;2023-08-30T10:27:46;19.40;99.90
39503;DHT22;26970;49.900;10.774;2023-08-30T10:30:12;19.30;99.90
39503;DHT22;26970;49.900;10.774;2023-08-30T10:32:42;19.30;99.90
39503;DHT22;26970;49.900;10.774;2023-08-30T10:35:12;19.50;99.90
39503;DHT22;26970;49.900;10.774;2023-08-30T10:37:41;19.80;99.90
39503;DHT22;26970;49.900;10.774;2023-08-30T10:40:08;20.10;99.90
39503;DHT22;26970;49.900;10.774;2023-08-30T10:42:33;20.20;99.90
39503;DHT22;26970;49.900;10.774;2023-08-30T10:45:02;20.30;99.90
39503;DHT22;26970;49.900;10.774;2023-08-30T10:47:31;20.30;99.90
39503;DHT22;26970;49.900;10.774;2023-08-30T10:50:00;20.20;99.90
39503;DHT22;26970;49.900;10.774;2023-08-30T10:52:30;20.10;99.90
39503;DHT22;26970;49.900;10.774;2023-08-30T10:57:34;20.00;99.90
39503;DHT22;26970;49.900;10.774;2023-08-30T11:02:35;20.40;99.90
39503;DHT22;26970;49.900;10.774;2023-08-30T11:05:01;20.50;99.90
39503;DHT22;26970;49.900;10.774;2023-08-30T11:07:29;20.60;99.90
39503;DHT22;26970;49.900;10.774;2023-08-30T11:09:55;20.50;99.90
39503;DHT22;26970;49.900;10.774;2023-08-30T11:12:20;20.00;99.90
39503;DHT22;26970;49.900;10.774;2023-08-30T11:14:48;19.90;99.90
39503;DHT22;26970;49.900;10.774;2023-08-30T11:17:16;19.80;99.90
39503;DHT22;26970;49.900;10.774;2023-08-30T11:19:42;20.10;99.90
39503;DHT22;26970;49.900;10.774;2023-08-30T11:22:08;20.30;99.90
39503;DHT22;26970;49.900;10.774;2023-08-30T11:24:34;20.50;99.90
39503;DHT22;26970;49.900;10.774;2023-08-30T11:27:00;20.70;99.90
39503;DHT22;26970;49.900;10.774;2023-08-30T11:29:27;20.60;99.90
39503;DHT22;26970;49.900;10.774;2023-08-30T11:31:52;20.20;99.90
39503;DHT22;26970;49.900;10.774;2023-08-30T11:34:21;20.20;99.90
39503;DHT22;26970;49.900;10.774;2023-08-30T11:36:50;20.10;99.90
39503;DHT22;26970;49.900;10.774;2023-08-30T11:39:16;20.00;99.90
39503;DHT22;26970;49.900;10.774;2023-08-30T11:41:43;20.10;99.90
39503;DHT22;26970;49.900;10.774;2023-08-30T11:44:09;20.10;99.90
39503;DHT22;26970;49.900;10.774;2023-08-30T11:46:35;20.10;99.90
39503;DHT22;26970;49.900;10.774;2023-08-30T11:49:00;20.30;99.90
39503;DHT22;26970;49.900;10.774;2023-08-30T11:51:28;20.40;99.90
39503;DHT22;26970;49.900;10.774;2023-08-30T11:53:55;20.40;99.90
39503;DHT22;26970;49.900;10.774;2023-08-30T11:56:21;20.50;99.90
39503;DHT22;26970;49.900;10.774;2023-08-30T11:58:48;20.40;99.90
39503;DHT22;26970;49.900;10.774;2023-08-30T12:01:13;20.20;99.90
39503;DHT22;26970;49.900;10.774;2023-08-30T12:03:39;20.00;99.90
39503;DHT22;26970;49.900;10.774;2023-08-30T12:06:10;20.10;99.90
39503;DHT22;26970;49.900;10.774;2023-08-30T12:08:36;20.20;99.90
39503;DHT22;26970;49.900;10.774;2023-08-30T12:11:01;20.30;99.90
39503;DHT22;26970;49.900;10.774;2023-08-30T12:13:30;20.30;99.90
39503;DHT22;26970;49.900;10.774;2023-08-30T12:15:57;20.20;99.90
39503;DHT22;26970;49.900;10.774;2023-08-30T12:18:28;19.90;99.90
39503;DHT22;26970;49.900;10.774;2023-08-30T12:20:59;19.90;99.90
39503;DHT22;26970;49.900;10.774;2023-08-30T12:23:28;19.70;99.90
39503;DHT22;26970;49.900;10.774;2023-08-30T12:28:26;19.60;99.90
39503;DHT22;26970;49.900;10.774;2023-08-30T12:30:52;19.70;99.90
39503;DHT22;26970;49.900;10.774;2023-08-30T12:33:18;19.80;99.90
39503;DHT22;26970;49.900;10.774;2023-08-30T12:35:44;19.80;99.90
39503;DHT22;26970;49.900;10.774;2023-08-30T12:38:09;19.90;99.90
39503;DHT22;26970;49.900;10.774;2023-08-30T12:40:37;20.10;99.90
39503;DHT22;26970;49.900;10.774;2023-08-30T12:43:02;20.10;99.90
39503;DHT22;26970;49.900;10.774;2023-08-30T12:45:29;20.00;99.90
39503;DHT22;26970;49.900;10.774;2023-08-30T12:47:54;20.10;99.90
39503;DHT22;26970;49.900;10.774;2023-08-30T12:50:21;20.10;99.90
39503;DHT22;26970;49.900;10.774;2023-08-30T12:52:47;20.00;99.90
39503;DHT22;26970;49.900;10.774;2023-08-30T12:55:13;20.00;99.90
39503;DHT22;26970;49.900;10.774;2023-08-30T12:57:39;19.80;99.90
39503;DHT22;26970;49.900;10.774;2023-08-30T13:00:05;20.10;99.90
39503;DHT22;26970;49.900;10.774;2023-08-30T13:02:30;19.50;99.90
39503;DHT22;26970;49.900;10.774;2023-08-30T13:04:56;19.40;99.90
39503;DHT22;26970;49.900;10.774;2023-08-30T13:07:22;19.30;99.90
39503;DHT22;26970;49.900;10.774;2023-08-30T13:09:47;19.10;99.90
39503;DHT22;26970;49.900;10.774;2023-08-30T13:12:13;18.90;99.90
39503;DHT22;26970;49.900;10.774;2023-08-30T13:14:38;18.90;99.90
39503;DHT22;26970;49.900;10.774;2023-08-30T13:17:04;19.40;99.90
39503;DHT22;26970;49.900;10.774;2023-08-30T13:19:29;18.80;99.90
39503;DHT22;26970;49.900;10.774;2023-08-30T13:21:55;18.80;99.90
39503;DHT22;26970;49.900;10.774;2023-08-30T13:24:20;18.90;99.90
39503;DHT22;26970;49.900;10.774;2023-08-30T13:26:46;18.90;99.90
39503;DHT22;26970;49.900;10.774;2023-08-30T13:29:11;18.90;99.90
39503;DHT22;26970;49.900;10.774;2023-08-30T13:31:37;19.80;99.90
39503;DHT22;26970;49.900;10.774;2023-08-30T13:34:03;19.20;99.90
39503;DHT22;26970;49.900;10.774;2023-08-30T13:36:29;19.30;99.90
39503;DHT22;26970;49.900;10.774;2023-08-30T13:38:54;19.40;99.90
39503;DHT22;26970;49.900;10.774;2023-08-30T13:41:20;19.50;99.90
39503;DHT22;26970;49.900;10.774;2023-08-30T13:43:46;19.60;99.90
39503;DHT22;26970;49.900;10.774;2023-08-30T13:46:11;19.80;99.90
39503;DHT22;26970;49.900;10.774;2023-08-30T13:48:37;19.80;99.90
39503;DHT22;26970;49.900;10.774;2023-08-30T13:51:02;19.80;99.90
39503;DHT22;26970;49.900;10.774;2023-08-30T13:53:29;19.90;99.90
39503;DHT22;26970;49.900;10.774;2023-08-30T13:55:55;20.10;99.90
39503;DHT22;26970;49.900;10.774;2023-08-30T13:58:21;20.50;99.90
39503;DHT22;26970;49.900;10.774;2023-08-30T14:00:46;20.10;99.90
39503;DHT22;26970;49.900;10.774;2023-08-30T14:03:12;20.20;99.90
39503;DHT22;26970;49.900;10.774;2023-08-30T14:05:37;20.30;99.90
39503;DHT22;26970;49.900;10.774;2023-08-30T14:08:06;20.70;99.90
39503;DHT22;26970;49.900;10.774;2023-08-30T14:10:32;20.30;99.90
39503;DHT22;26970;49.900;10.774;2023-08-30T14:12:58;20.50;99.90
39503;DHT22;26970;49.900;10.774;2023-08-30T14:15:23;20.00;99.90
39503;DHT22;26970;49.900;10.774;2023-08-30T14:17:49;19.80;99.90
39503;DHT22;26970;49.900;10.774;2023-08-30T14:20:14;19.50;99.90
39503;DHT22;26970;49.900;10.774;2023-08-30T14:22:40;19.50;99.90
39503;DHT22;26970;49.900;10.774;2023-08-30T14:25:06;20.10;99.90
39503;DHT22;26970;49.900;10.774;2023-08-30T14:27:31;19.50;99.90
39503;DHT22;26970;49.900;10.774;2023-08-30T14:29:57;19.60;99.90
39503;DHT22;26970;49.900;10.774;2023-08-30T14:32:22;19.60;99.90
39503;DHT22;26970;49.900;10.774;2023-08-30T14:34:48;19.60;99.90
39503;DHT22;26970;49.900;10.774;2023-08-30T14:37:13;19.50;99.90
39503;DHT22;26970;49.900;10.774;2023-08-30T14:39:39;19.40;99.90
39503;DHT22;26970;49.900;10.774;2023-08-30T14:42:05;19.40;99.90
39503;DHT22;26970;49.900;10.774;2023-08-30T14:44:30;19.40;99.90
39503;DHT22;26970;49.900;10.774;2023-08-30T14:46:56;19.20;99.90
39503;DHT22;26970;49.900;10.774;2023-08-30T14:49:21;19.30;99.90
39503;DHT22;26970;49.900;10.774;2023-08-30T14:51:47;20.30;99.90
39503;DHT22;26970;49.900;10.774;2023-08-30T14:54:12;19.20;99.90
39503;DHT22;26970;49.900;10.774;2023-08-30T14:56:38;19.30;99.90
39503;DHT22;26970;49.900;10.774;2023-08-30T14:59:03;19.20;99.90
39503;DHT22;26970;49.900;10.774;2023-08-30T15:01:29;19.20;99.90
39503;DHT22;26970;49.900;10.774;2023-08-30T15:03:55;19.10;99.90
39503;DHT22;26970;49.900;10.774;2023-08-30T15:06:21;19.10;99.90
39503;DHT22;26970;49.900;10.774;2023-08-30T15:08:48;18.90;99.90
39503;DHT22;26970;49.900;10.774;2023-08-30T15:11:13;18.80;99.90
39503;DHT22;26970;49.900;10.774;2023-08-30T15:13:39;18.80;99.90
39503;DHT22;26970;49.900;10.774;2023-08-30T15:16:04;18.70;99.90
39503;DHT22;26970;49.900;10.774;2023-08-30T15:18:30;18.70;99.90
39503;DHT22;26970;49.900;10.774;2023-08-30T15:20:56;18.70;99.90
39503;DHT22;26970;49.900;10.774;2023-08-30T15:23:22;18.70;99.90
39503;DHT22;26970;49.900;10.774;2023-08-30T15:25:48;18.60;99.90
39503;DHT22;26970;49.900;10.774;2023-08-30T15:28:15;18.60;99.90
39503;DHT22;26970;49.900;10.774;2023-08-30T15:30:47;17.80;99.90
39503;DHT22;26970;49.900;10.774;2023-08-30T15:33:14;17.20;99.90
39503;DHT22;26970;49.900;10.774;2023-08-30T15:35:40;17.00;99.90
39503;DHT22;26970;49.900;10.774;2023-08-30T15:38:06;17.10;99.90
39503;DHT22;26970;49.900;10.774;2023-08-30T15:40:32;17.30;99.90
39503;DHT22;26970;49.900;10.774;2023-08-30T15:43:00;17.50;99.90
39503;DHT22;26970;49.900;10.774;2023-08-30T15:45:26;17.70;99.90
39503;DHT22;26970;49.900;10.774;2023-08-30T15:47:51;17.80;99.90
39503;DHT22;26970;49.900;10.774;2023-08-30T15:50:17;17.80;99.90
39503;DHT22;26970;49.900;10.774;2023-08-30T15:52:42;17.90;99.90
39503;DHT22;26970;49.900;10.774;2023-08-30T15:55:08;18.00;99.90
39503;DHT22;26970;49.900;10.774;2023-08-30T15:57:34;18.10;99.90
39503;DHT22;26970;49.900;10.774;2023-08-30T15:59:59;18.20;99.90
39503;DHT22;26970;49.900;10.774;2023-08-30T16:02:25;18.20;99.90
39503;DHT22;26970;49.900;10.774;2023-08-30T16:04:51;18.20;99.90
39503;DHT22;26970;49.900;10.774;2023-08-30T16:07:16;18.10;99.90
39503;DHT22;26970;49.900;10.774;2023-08-30T16:09:42;18.10;99.90
39503;DHT22;26970;49.900;10.774;2023-08-30T16:12:08;18.10;99.90